createdAt,value
2019-02-06T00:01:18.559Z,87.00
2019-02-06T00:03:49.686Z,87.14
2019-02-06T00:06:20.802Z,87.17
2019-02-06T00:08:52.162Z,86.88
2019-02-06T00:11:23.143Z,86.80
2019-02-06T00:13:54.218Z,86.89
2019-02-06T00:16:25.171Z,86.61
2019-02-06T00:18:56.186Z,86.52
2019-02-06T00:21:27.150Z,86.26
2019-02-06T00:23:58.439Z,85.58
2019-02-06T00:26:29.463Z,84.87
2019-02-06T00:29:00.439Z,84.90
2019-02-06T00:31:31.380Z,84.63
2019-02-06T00:34:02.383Z,84.24
2019-02-06T00:36:33.760Z,84.24
2019-02-06T00:39:07.063Z,84.39
2019-02-06T00:41:37.992Z,84.51
2019-02-06T00:44:09.010Z,84.33
2019-02-06T00:46:39.912Z,84.23
2019-02-06T00:49:11.177Z,83.85
2019-02-06T00:51:42.189Z,84.00
2019-02-06T00:54:13.457Z,83.94
2019-02-06T00:56:44.784Z,84.11
2019-02-06T00:59:15.863Z,84.22
2019-02-06T01:01:46.834Z,84.14
2019-02-06T01:04:18.003Z,84.20
2019-02-06T01:06:48.991Z,84.53
2019-02-06T01:09:20.198Z,85.25
2019-02-06T01:11:51.558Z,84.98
2019-02-06T01:14:22.648Z,84.24
2019-02-06T01:16:53.779Z,83.90
2019-02-06T01:19:24.836Z,84.11
2019-02-06T01:21:56.152Z,84.24
2019-02-06T01:24:27.188Z,84.62
2019-02-06T01:26:58.181Z,84.88
2019-02-06T01:29:29.524Z,84.57
2019-02-06T01:32:00.580Z,84.58
2019-02-06T01:34:31.619Z,85.58
2019-02-06T01:37:02.605Z,86.01
2019-02-06T01:39:33.537Z,85.76
2019-02-06T01:42:04.517Z,85.74
2019-02-06T01:44:35.519Z,86.24
2019-02-06T01:47:06.782Z,86.37
2019-02-06T01:49:37.800Z,86.76
2019-02-06T01:52:08.772Z,86.48
2019-02-06T01:54:40.015Z,86.51
2019-02-06T01:57:11.274Z,86.83
2019-02-06T01:59:42.169Z,86.95
2019-02-06T02:02:13.165Z,87.04
2019-02-06T02:04:44.334Z,86.67
2019-02-06T02:07:15.476Z,86.66
2019-02-06T02:09:46.760Z,86.89
2019-02-06T02:12:18.013Z,86.72
2019-02-06T02:14:49.119Z,86.85
2019-02-06T02:17:20.101Z,87.29
2019-02-06T02:19:51.446Z,87.75
2019-02-06T02:22:22.618Z,88.37
2019-02-06T02:24:53.812Z,88.90
2019-02-06T02:27:24.726Z,89.08
2019-02-06T02:29:55.626Z,88.56
2019-02-06T02:32:27.055Z,88.55
2019-02-06T02:34:58.029Z,88.60
2019-02-06T02:37:29.295Z,88.58
2019-02-06T02:40:00.480Z,88.65
2019-02-06T02:42:31.459Z,88.29
2019-02-06T02:45:02.451Z,88.19
2019-02-06T02:47:33.739Z,88.21
2019-02-06T02:50:05.963Z,88.44
2019-02-06T02:52:36.846Z,88.79
2019-02-06T02:55:08.341Z,89.06
2019-02-06T02:57:39.259Z,89.06
2019-02-06T03:00:18.024Z,88.95
2019-02-06T03:03:00.026Z,89.03
2019-02-06T03:05:33.387Z,88.84
2019-02-06T03:08:04.602Z,88.78
2019-02-06T03:10:35.800Z,88.84
2019-02-06T03:13:07.226Z,89.31
2019-02-06T03:15:38.222Z,89.32
2019-02-06T03:18:09.107Z,89.53
2019-02-06T03:20:40.025Z,89.73
2019-02-06T03:23:10.997Z,90.02
2019-02-06T03:25:42.110Z,90.26
2019-02-06T03:28:13.202Z,90.59
2019-02-06T03:30:44.169Z,90.73
2019-02-06T03:33:15.378Z,90.93
2019-02-06T03:35:46.378Z,91.07
2019-02-06T03:38:17.606Z,91.02
2019-02-06T03:40:48.582Z,90.87
2019-02-06T03:43:19.775Z,90.59
2019-02-06T03:45:51.086Z,90.32
2019-02-06T03:48:22.107Z,90.31
2019-02-06T03:50:53.070Z,90.15
2019-02-06T03:53:24.573Z,89.89
2019-02-06T03:55:55.525Z,89.70
2019-02-06T03:58:26.514Z,89.72
2019-02-06T04:00:57.497Z,89.73
2019-02-06T04:03:28.527Z,89.77
2019-02-06T04:05:59.453Z,89.63
2019-02-06T04:08:30.432Z,89.34
2019-02-06T04:11:01.388Z,89.37
2019-02-06T04:13:32.386Z,89.25
2019-02-06T04:16:03.488Z,88.60
2019-02-06T04:18:34.422Z,88.49
2019-02-06T04:21:05.420Z,88.87
2019-02-06T04:23:36.451Z,88.98
2019-02-06T04:26:07.435Z,88.93
2019-02-06T04:28:38.426Z,88.89
2019-02-06T04:31:09.328Z,88.92
2019-02-06T04:33:40.504Z,88.91
2019-02-06T04:36:11.550Z,88.73
2019-02-06T04:38:42.527Z,89.26
2019-02-06T04:41:13.525Z,89.45
2019-02-06T04:43:44.462Z,89.37
2019-02-06T04:46:15.812Z,89.25
2019-02-06T04:48:47.433Z,89.22
2019-02-06T04:51:18.414Z,89.26
2019-02-06T04:53:49.443Z,89.08
2019-02-06T04:56:20.437Z,88.57
2019-02-06T04:58:51.411Z,88.50
2019-02-06T05:01:22.457Z,88.57
2019-02-06T05:03:53.445Z,88.16
2019-02-06T05:06:24.414Z,88.08
2019-02-06T05:08:55.442Z,87.59
2019-02-06T05:11:26.423Z,87.38
2019-02-06T05:13:57.739Z,87.28
2019-02-06T05:16:28.767Z,87.32
2019-02-06T05:19:00.062Z,87.11
2019-02-06T05:21:31.465Z,87.17
2019-02-06T05:24:02.733Z,87.17
2019-02-06T05:26:33.687Z,86.91
2019-02-06T05:29:04.688Z,87.29
2019-02-06T05:31:36.039Z,87.44
2019-02-06T05:34:07.018Z,87.74
2019-02-06T05:36:38.039Z,88.18
2019-02-06T05:39:10.308Z,88.49
2019-02-06T05:41:41.298Z,88.72
2019-02-06T05:44:12.614Z,88.61
2019-02-06T05:46:43.581Z,88.22
2019-02-06T05:49:14.520Z,88.09
2019-02-06T05:51:45.448Z,87.89
2019-02-06T05:54:16.768Z,87.48
2019-02-06T05:56:48.119Z,87.72
2019-02-06T05:59:19.037Z,87.15
2019-02-06T06:01:49.942Z,86.73
2019-02-06T06:04:20.997Z,86.65
2019-02-06T06:06:51.976Z,86.58
2019-02-06T06:09:23.351Z,86.28
2019-02-06T06:11:54.326Z,86.25
2019-02-06T06:14:25.289Z,86.05
2019-02-06T06:16:56.318Z,85.92
2019-02-06T06:19:27.519Z,85.83
2019-02-06T06:21:58.516Z,85.83
2019-02-06T06:24:29.504Z,85.65
2019-02-06T06:27:00.406Z,85.77
2019-02-06T06:29:31.912Z,85.76
2019-02-06T06:32:02.838Z,86.10
2019-02-06T06:34:34.148Z,85.79
2019-02-06T06:37:05.401Z,85.79
2019-02-06T06:39:36.413Z,85.43
2019-02-06T06:42:07.425Z,85.26
2019-02-06T06:44:38.435Z,85.28
2019-02-06T06:47:09.464Z,85.03
2019-02-06T06:49:40.759Z,85.17
2019-02-06T06:52:11.670Z,84.92
2019-02-06T06:54:42.919Z,84.73
2019-02-06T06:57:13.913Z,84.77
2019-02-06T06:59:45.157Z,84.76
2019-02-06T07:02:16.163Z,84.29
2019-02-06T07:04:47.167Z,84.12
2019-02-06T07:07:18.141Z,83.97
2019-02-06T07:09:49.448Z,83.64
2019-02-06T07:12:20.408Z,83.79
2019-02-06T07:14:51.304Z,83.17
2019-02-06T07:17:22.287Z,82.85
2019-02-06T07:19:53.243Z,82.78
2019-02-06T07:22:24.225Z,82.30
2019-02-06T07:24:55.264Z,82.38
2019-02-06T07:27:26.507Z,82.14
2019-02-06T07:29:57.767Z,81.87
2019-02-06T07:32:28.727Z,81.78
2019-02-06T07:34:59.986Z,81.52
2019-02-06T07:37:31.419Z,81.62
2019-02-06T07:40:02.381Z,81.54
2019-02-06T07:42:33.777Z,81.31
2019-02-06T07:45:05.302Z,81.38
2019-02-06T07:47:36.604Z,81.16
2019-02-06T07:50:11.551Z,80.97
2019-02-06T07:52:42.530Z,81.05
2019-02-06T07:55:13.843Z,80.34
2019-02-06T07:57:44.875Z,79.61
2019-02-06T08:00:15.873Z,78.81
2019-02-06T08:02:47.299Z,77.49
2019-02-06T08:05:19.586Z,76.32
2019-02-06T08:07:50.954Z,75.42
2019-02-06T08:10:28.639Z,73.92
2019-02-06T08:12:59.815Z,72.54
2019-02-06T08:15:31.149Z,71.05
2019-02-06T08:18:02.338Z,69.12
2019-02-06T08:20:33.471Z,66.82
2019-02-06T08:23:04.613Z,63.81
2019-02-06T08:25:35.637Z,63.87
2019-02-06T08:28:06.764Z,60.93
2019-02-06T08:30:42.258Z,60.64
2019-02-06T08:33:13.255Z,60.55
2019-02-06T08:35:44.175Z,61.25
2019-02-06T08:38:15.103Z,61.96
2019-02-06T08:40:46.405Z,62.28
2019-02-06T08:43:17.323Z,63.81
2019-02-06T08:45:48.883Z,65.61
2019-02-06T08:48:19.894Z,66.18
2019-02-06T08:50:50.883Z,68.11
2019-02-06T08:53:21.907Z,68.65
2019-02-06T08:55:53.007Z,69.62
2019-02-06T08:58:24.327Z,70.04
2019-02-06T09:00:55.524Z,70.75
2019-02-06T09:03:26.502Z,70.83
2019-02-06T09:05:57.461Z,71.19
2019-02-06T09:08:28.431Z,71.18
2019-02-06T09:10:59.499Z,71.25
2019-02-06T09:13:31.068Z,71.00
2019-02-06T09:16:01.987Z,71.00
2019-02-06T09:18:33.066Z,71.14
2019-02-06T09:21:04.358Z,71.14
2019-02-06T09:23:35.696Z,71.13
2019-02-06T09:26:06.926Z,70.91
2019-02-06T09:28:37.941Z,71.07
2019-02-06T09:31:08.915Z,71.24
2019-02-06T09:33:39.903Z,70.47
2019-02-06T09:36:10.989Z,70.16
2019-02-06T09:38:42.364Z,70.71
2019-02-06T09:41:13.449Z,70.00
2019-02-06T09:43:44.431Z,69.98
2019-02-06T09:46:15.395Z,69.85
2019-02-06T09:48:46.362Z,69.48
2019-02-06T09:51:19.217Z,69.47
2019-02-06T09:53:50.095Z,68.79
2019-02-06T09:56:21.082Z,69.00
2019-02-06T09:58:52.278Z,68.74
2019-02-06T10:01:23.615Z,68.50
2019-02-06T10:03:54.852Z,68.61
2019-02-06T10:06:25.740Z,68.48
2019-02-06T10:08:56.737Z,68.23
2019-02-06T10:11:27.966Z,68.37
2019-02-06T10:13:58.871Z,68.29
2019-02-06T10:16:29.906Z,68.43
2019-02-06T10:19:00.805Z,68.54
2019-02-06T10:21:32.266Z,68.15
2019-02-06T10:24:03.213Z,68.47
2019-02-06T10:26:34.338Z,68.71
2019-02-06T10:29:05.849Z,68.72
2019-02-06T10:31:37.204Z,68.34
2019-02-06T10:34:14.333Z,67.90
2019-02-06T10:36:45.358Z,67.83
2019-02-06T10:39:16.476Z,67.66
2019-02-06T10:41:47.539Z,67.25
2019-02-06T10:44:18.587Z,67.39
2019-02-06T10:46:49.892Z,66.91
2019-02-06T10:49:20.894Z,67.02
2019-02-06T10:51:52.299Z,66.88
2019-02-06T10:54:23.283Z,66.72
2019-02-06T10:56:54.572Z,67.50
2019-02-06T10:59:25.708Z,66.81
2019-02-06T11:01:56.655Z,66.75
2019-02-06T11:04:27.562Z,67.43
2019-02-06T11:06:58.523Z,66.99
2019-02-06T11:09:29.478Z,67.04
2019-02-06T11:12:00.393Z,67.41
2019-02-06T11:14:31.637Z,67.08
2019-02-06T11:17:02.606Z,66.84
2019-02-06T11:19:33.529Z,66.56
2019-02-06T11:22:04.726Z,66.82
2019-02-06T11:24:35.659Z,66.27
2019-02-06T11:27:07.245Z,66.27
2019-02-06T11:29:38.211Z,65.93
2019-02-06T11:32:09.219Z,65.53
2019-02-06T11:34:40.168Z,65.71
2019-02-06T11:37:11.123Z,65.81
2019-02-06T11:39:42.063Z,65.72
2019-02-06T11:42:13.083Z,65.47
2019-02-06T11:44:44.423Z,65.72
2019-02-06T11:47:15.740Z,65.81
2019-02-06T11:49:48.103Z,65.84
2019-02-06T11:52:19.048Z,65.74
2019-02-06T11:54:49.964Z,65.56
2019-02-06T11:57:24.011Z,64.85
2019-02-06T11:59:53.733Z,64.90
2019-02-06T12:02:36.773Z,64.71
2019-02-06T12:04:58.298Z,64.97
2019-02-06T12:07:29.404Z,64.85
2019-02-06T12:10:09.242Z,65.02
2019-02-06T12:12:33.188Z,64.86
2019-02-06T12:15:04.476Z,64.62
2019-02-06T12:17:35.400Z,64.72
2019-02-06T12:20:10.646Z,64.21
2019-02-06T12:22:41.629Z,64.23
2019-02-06T12:25:13.538Z,64.35
2019-02-06T12:27:44.529Z,63.89
2019-02-06T12:30:34.823Z,63.67
2019-02-06T12:33:06.646Z,63.45
2019-02-06T12:35:37.565Z,63.37
2019-02-06T12:38:08.840Z,63.79
2019-02-06T12:40:39.969Z,64.13
2019-02-06T12:43:11.174Z,63.74
2019-02-06T12:45:42.178Z,63.53
2019-02-06T12:48:13.340Z,63.41
2019-02-06T12:50:44.345Z,63.47
2019-02-06T12:53:15.492Z,63.52
2019-02-06T12:55:46.819Z,63.21
2019-02-06T12:58:18.096Z,63.50
2019-02-06T13:00:49.132Z,63.64
2019-02-06T13:03:20.114Z,62.88
2019-02-06T13:05:51.105Z,63.14
2019-02-06T13:08:22.467Z,62.73
2019-02-06T13:10:53.580Z,62.87
2019-02-06T13:13:24.649Z,63.19
2019-02-06T13:15:55.697Z,63.15
2019-02-06T13:18:26.690Z,63.55
2019-02-06T13:20:57.694Z,63.31
2019-02-06T13:23:28.656Z,63.24
2019-02-06T13:25:59.928Z,63.57
2019-02-06T13:28:30.944Z,63.71
2019-02-06T13:31:02.065Z,63.70
2019-02-06T13:33:33.063Z,64.62
2019-02-06T13:36:07.224Z,64.01
2019-02-06T13:38:38.407Z,63.65
2019-02-06T13:41:09.415Z,62.86
2019-02-06T13:43:40.356Z,63.20
2019-02-06T13:46:11.416Z,63.29
2019-02-06T13:48:42.326Z,63.30
2019-02-06T13:51:17.471Z,62.58
2019-02-06T13:53:46.575Z,62.65
2019-02-06T13:56:17.575Z,62.96
2019-02-06T13:58:48.548Z,62.57
2019-02-06T14:01:25.776Z,62.13
2019-02-06T14:03:52.290Z,62.01
2019-02-06T14:06:23.285Z,62.41
2019-02-06T14:08:54.257Z,62.22
2019-02-06T14:11:25.304Z,62.04
2019-02-06T14:13:56.605Z,62.28
2019-02-06T14:16:27.606Z,61.69
2019-02-06T14:18:58.691Z,61.51
2019-02-06T14:21:29.805Z,60.97
2019-02-06T14:24:35.064Z,61.54
2019-02-06T14:27:52.328Z,61.02
2019-02-06T14:31:30.216Z,61.20
2019-02-06T14:34:31.824Z,60.86
2019-02-06T14:38:26.640Z,60.80
2019-02-06T14:42:00.261Z,60.93
2019-02-06T14:45:35.657Z,60.89
2019-02-06T14:48:59.362Z,61.08
2019-02-06T14:52:44.722Z,60.20
2019-02-06T14:56:17.295Z,59.98
2019-02-06T14:59:59.088Z,60.21
2019-02-06T15:03:34.855Z,59.92
2019-02-06T15:06:44.288Z,59.77
2019-02-06T15:10:13.345Z,60.22
2019-02-06T15:13:48.629Z,60.28
2019-02-06T15:17:12.666Z,60.26
2019-02-06T15:20:29.623Z,60.14
2019-02-06T15:24:12.335Z,60.31
2019-02-06T15:27:39.915Z,59.92
2019-02-06T15:31:09.376Z,60.08
2019-02-06T15:34:28.526Z,59.97
2019-02-06T15:37:38.687Z,59.75
2019-02-06T15:40:37.718Z,59.79
2019-02-06T15:44:08.719Z,59.56
2019-02-06T15:47:26.713Z,59.60
2019-02-06T15:50:26.555Z,59.71
2019-02-06T15:53:34.879Z,59.52
2019-02-06T15:57:15.453Z,59.47
2019-02-06T16:00:49.052Z,59.55
2019-02-06T16:04:38.694Z,59.97
2019-02-06T16:07:53.716Z,60.29
2019-02-06T16:11:50.086Z,60.47
2019-02-06T16:14:44.913Z,60.57
2019-02-06T16:18:23.131Z,60.82
2019-02-06T16:21:36.610Z,60.86
2019-02-06T16:24:57.207Z,60.90
2019-02-06T16:28:07.248Z,61.16
2019-02-06T16:31:39.635Z,60.69
2019-02-06T16:34:57.516Z,60.91
2019-02-06T16:38:26.798Z,60.67
2019-02-06T16:42:04.995Z,60.56
2019-02-06T16:45:17.557Z,60.51
2019-02-06T16:48:13.425Z,60.22
2019-02-06T16:50:55.823Z,60.22
2019-02-06T16:54:39.090Z,60.23
2019-02-06T16:57:57.011Z,60.35
2019-02-06T17:01:12.664Z,60.21
2019-02-06T17:04:50.834Z,60.40
2019-02-06T17:08:25.676Z,60.52
2019-02-06T17:11:37.310Z,60.39
2019-02-06T17:15:20.289Z,60.34
2019-02-06T17:18:51.959Z,60.41
2019-02-06T17:22:22.601Z,60.55
2019-02-06T17:25:39.880Z,60.74
2019-02-06T17:28:51.785Z,61.18
2019-02-06T17:32:17.489Z,61.06
2019-02-06T17:35:42.243Z,61.17
2019-02-06T17:39:01.713Z,61.69
2019-02-06T17:42:33.731Z,61.50
2019-02-06T17:45:46.565Z,61.65
2019-02-06T17:49:00.980Z,61.87
2019-02-06T17:52:19.637Z,62.00
2019-02-06T17:55:21.108Z,61.74
2019-02-06T17:57:55.980Z,61.74
2019-02-06T18:00:41.731Z,61.58
2019-02-06T18:03:14.404Z,61.86
2019-02-06T18:05:46.337Z,61.57
2019-02-06T18:08:17.709Z,61.62
2019-02-06T18:10:48.736Z,61.37
2019-02-06T18:13:20.389Z,61.26
2019-02-06T18:15:51.344Z,61.18
2019-02-06T18:18:25.213Z,61.33
2019-02-06T18:20:56.193Z,61.88
2019-02-06T18:23:28.587Z,61.97
2019-02-06T18:25:59.699Z,62.02
2019-02-06T18:28:33.542Z,62.27
2019-02-06T18:31:05.720Z,62.37
2019-02-06T18:33:37.002Z,62.31
2019-02-06T18:36:08.263Z,62.18
2019-02-06T18:38:46.589Z,62.03
2019-02-06T18:41:15.633Z,61.80
2019-02-06T18:43:46.958Z,61.50
2019-02-06T18:46:18.339Z,61.96
2019-02-06T18:48:49.520Z,62.69
2019-02-06T18:51:20.958Z,62.68
2019-02-06T18:53:53.775Z,62.34
2019-02-06T18:56:25.170Z,62.36
2019-02-06T18:58:57.123Z,61.89
2019-02-06T19:01:28.478Z,62.54
2019-02-06T19:03:59.542Z,62.67
2019-02-06T19:06:30.876Z,62.68
2019-02-06T19:09:01.963Z,62.99
2019-02-06T19:11:33.123Z,62.83
2019-02-06T19:14:05.423Z,62.91
2019-02-06T19:16:36.420Z,62.77
2019-02-06T19:19:08.199Z,62.86
2019-02-06T19:21:39.234Z,62.77
2019-02-06T19:24:11.031Z,63.15
2019-02-06T19:26:42.402Z,62.88
2019-02-06T19:29:13.527Z,62.57
2019-02-06T19:31:44.994Z,62.59
2019-02-06T19:34:16.013Z,62.42
2019-02-06T19:36:47.444Z,62.25
2019-02-06T19:39:18.428Z,61.94
2019-02-06T19:41:49.426Z,61.49
2019-02-06T19:44:20.479Z,61.37
2019-02-06T19:46:51.714Z,60.88
2019-02-06T19:49:25.095Z,60.12
2019-02-06T19:51:58.518Z,60.35
2019-02-06T19:54:30.961Z,60.38
2019-02-06T19:57:02.338Z,60.57
2019-02-06T19:59:33.414Z,60.68
2019-02-06T20:02:04.624Z,61.10
2019-02-06T20:04:35.626Z,61.65
2019-02-06T20:07:06.656Z,61.76
2019-02-06T20:09:37.698Z,61.02
2019-02-06T20:12:08.794Z,60.98
2019-02-06T20:14:40.220Z,61.23
2019-02-06T20:17:12.830Z,61.36
2019-02-06T20:19:43.979Z,61.46
2019-02-06T20:22:14.966Z,61.46
2019-02-06T20:24:46.337Z,61.41
2019-02-06T20:27:20.223Z,61.31
2019-02-06T20:29:51.646Z,60.96
2019-02-06T20:32:25.732Z,60.69
2019-02-06T20:34:56.763Z,60.62
2019-02-06T20:37:28.122Z,60.93
2019-02-06T20:39:59.400Z,61.12
2019-02-06T20:42:31.496Z,60.88
2019-02-06T20:45:02.511Z,61.20
2019-02-06T20:47:33.564Z,61.52
2019-02-06T20:50:06.214Z,61.09
2019-02-06T20:52:40.653Z,61.09
2019-02-06T20:55:12.018Z,60.88
2019-02-06T20:57:43.331Z,60.90
2019-02-06T21:00:19.329Z,60.50
2019-02-06T21:02:50.636Z,60.22
2019-02-06T21:05:22.201Z,60.43
2019-02-06T21:07:55.466Z,60.13
2019-02-06T21:10:28.608Z,60.35
2019-02-06T21:12:59.930Z,60.45
2019-02-06T21:15:32.991Z,60.64
2019-02-06T21:18:04.588Z,60.79
2019-02-06T21:20:35.859Z,60.88
2019-02-06T21:23:07.124Z,61.35
2019-02-06T21:25:40.633Z,60.81
2019-02-06T21:28:11.653Z,61.06
2019-02-06T21:30:43.499Z,61.50
2019-02-06T21:33:14.895Z,61.66
2019-02-06T21:35:47.016Z,62.17
2019-02-06T21:38:17.985Z,62.13
2019-02-06T21:40:49.842Z,62.16
2019-02-06T21:43:20.891Z,61.93
2019-02-06T21:45:51.943Z,62.33
2019-02-06T21:48:23.234Z,61.58
2019-02-06T21:50:54.482Z,61.49
2019-02-06T21:53:25.863Z,61.08
2019-02-06T21:55:56.908Z,60.76
2019-02-06T21:58:27.917Z,60.83
2019-02-06T22:00:59.367Z,60.81
2019-02-06T22:03:30.364Z,61.34
2019-02-06T22:06:01.641Z,61.55
2019-02-06T22:08:32.675Z,61.93
2019-02-06T22:11:03.673Z,61.72
2019-02-06T22:13:34.954Z,61.68
2019-02-06T22:16:06.078Z,61.38
2019-02-06T22:18:37.083Z,60.89
2019-02-06T22:21:08.055Z,60.70
2019-02-06T22:23:39.113Z,60.63
2019-02-06T22:26:10.084Z,60.89
2019-02-06T22:28:56.227Z,60.99
2019-02-06T22:31:27.512Z,60.79
2019-02-06T22:33:58.498Z,61.08
2019-02-06T22:36:29.527Z,61.38
2019-02-06T22:39:03.409Z,61.18
2019-02-06T22:41:34.528Z,60.97
2019-02-06T22:44:06.850Z,60.63
2019-02-06T22:46:37.951Z,60.54
2019-02-06T22:49:08.980Z,60.64
2019-02-06T22:51:40.246Z,60.15
2019-02-06T22:54:11.306Z,60.16
2019-02-06T22:56:42.378Z,59.89
2019-02-06T22:59:13.371Z,60.41
2019-02-06T23:01:59.435Z,60.12
2019-02-06T23:04:30.518Z,59.96
2019-02-06T23:07:01.530Z,60.17
2019-02-06T23:09:32.572Z,60.05
2019-02-06T23:12:03.667Z,59.83
2019-02-06T23:14:34.736Z,59.85
2019-02-06T23:17:08.604Z,60.07
2019-02-06T23:19:39.871Z,60.05
2019-02-06T23:22:10.781Z,60.11
2019-02-06T23:24:41.793Z,60.33
2019-02-06T23:27:13.091Z,60.60
2019-02-06T23:29:44.111Z,60.63
2019-02-06T23:32:15.152Z,60.45
2019-02-06T23:34:46.103Z,60.40
2019-02-06T23:37:17.103Z,60.39
2019-02-06T23:39:48.122Z,60.64
2019-02-06T23:42:19.007Z,60.96
2019-02-06T23:44:49.929Z,60.92
2019-02-06T23:47:20.856Z,61.38
2019-02-06T23:49:51.873Z,61.08
2019-02-06T23:52:22.842Z,61.12
2019-02-06T23:54:53.801Z,60.83
2019-02-06T23:57:24.729Z,60.67
2019-02-06T23:59:55.638Z,61.07
